Terminal Aerodrome Forecast
Issued by NWS

Home | Current Version | Previous Version | Graphics & Text | Print | Product List | Glossary On
Versions: 1 2 3 4 5 6 7 8 9 10 11 12 13 14 15 16 17 18
000
FTUS43 KIWX 042339
TAFSBN
TAF
KSBN 042339Z 0500/0524 12008KT 1/2SM SN FG OVC003
     FM050100 22010KT 1 1/2SM -SN BR OVC003
     FM050400 25010KT 5SM BR OVC004
      TEMPO 0509/0513 2SM BR
     FM051700 19008KT P6SM OVC008
     FM052100 17006KT P6SM BKN012=

USA.gov is the U.S. government's official web portal to all federal, state and local government web resources and services.